sensor_id;sensor_type;location;lat;lon;timestamp;P1;durP1;ratioP1;P2;durP2;ratioP2
20181;SDS011;10250;50.756;6.172;2023-07-09T00:01:03;16.83;;;5.60;;
20181;SDS011;10250;50.756;6.172;2023-07-09T00:03:03;16.20;;;6.30;;
20181;SDS011;10250;50.756;6.172;2023-07-09T00:05:04;17.57;;;5.90;;
20181;SDS011;10250;50.756;6.172;2023-07-09T00:07:08;17.00;;;5.87;;
20181;SDS011;10250;50.756;6.172;2023-07-09T00:09:18;15.60;;;5.67;;
20181;SDS011;10250;50.756;6.172;2023-07-09T00:11:20;20.07;;;5.63;;
20181;SDS011;10250;50.756;6.172;2023-07-09T00:13:21;15.40;;;5.67;;
20181;SDS011;10250;50.756;6.172;2023-07-09T00:15:22;16.40;;;5.93;;
20181;SDS011;10250;50.756;6.172;2023-07-09T00:19:27;16.33;;;5.47;;
20181;SDS011;10250;50.756;6.172;2023-07-09T00:21:29;17.73;;;5.80;;
20181;SDS011;10250;50.756;6.172;2023-07-09T00:23:34;17.57;;;5.73;;
20181;SDS011;10250;50.756;6.172;2023-07-09T00:25:34;15.27;;;5.70;;
20181;SDS011;10250;50.756;6.172;2023-07-09T00:27:35;15.37;;;5.50;;
20181;SDS011;10250;50.756;6.172;2023-07-09T00:29:38;17.73;;;5.40;;
20181;SDS011;10250;50.756;6.172;2023-07-09T00:31:39;15.90;;;5.53;;
20181;SDS011;10250;50.756;6.172;2023-07-09T00:33:41;16.10;;;5.47;;
20181;SDS011;10250;50.756;6.172;2023-07-09T00:35:47;16.27;;;5.70;;
20181;SDS011;10250;50.756;6.172;2023-07-09T00:37:50;14.73;;;5.17;;
20181;SDS011;10250;50.756;6.172;2023-07-09T00:39:51;16.20;;;6.00;;
20181;SDS011;10250;50.756;6.172;2023-07-09T00:41:51;15.37;;;5.50;;
20181;SDS011;10250;50.756;6.172;2023-07-09T00:43:52;17.07;;;6.13;;
20181;SDS011;10250;50.756;6.172;2023-07-09T00:48:27;16.90;;;5.40;;
20181;SDS011;10250;50.756;6.172;2023-07-09T00:50:41;17.17;;;5.60;;
20181;SDS011;10250;50.756;6.172;2023-07-09T00:52:51;17.37;;;5.70;;
20181;SDS011;10250;50.756;6.172;2023-07-09T00:54:55;14.33;;;5.00;;
20181;SDS011;10250;50.756;6.172;2023-07-09T00:56:59;17.93;;;5.87;;
20181;SDS011;10250;50.756;6.172;2023-07-09T00:59:06;16.73;;;5.60;;
20181;SDS011;10250;50.756;6.172;2023-07-09T01:01:16;16.17;;;5.90;;
20181;SDS011;10250;50.756;6.172;2023-07-09T01:03:23;17.47;;;5.70;;
20181;SDS011;10250;50.756;6.172;2023-07-09T01:05:29;15.67;;;5.50;;
20181;SDS011;10250;50.756;6.172;2023-07-09T01:07:30;16.23;;;5.40;;
20181;SDS011;10250;50.756;6.172;2023-07-09T01:09:31;16.80;;;5.70;;
20181;SDS011;10250;50.756;6.172;2023-07-09T01:11:35;14.97;;;5.87;;
20181;SDS011;10250;50.756;6.172;2023-07-09T01:13:38;17.63;;;5.93;;
20181;SDS011;10250;50.756;6.172;2023-07-09T01:15:39;17.67;;;5.93;;
20181;SDS011;10250;50.756;6.172;2023-07-09T01:17:41;16.07;;;5.70;;
20181;SDS011;10250;50.756;6.172;2023-07-09T01:19:48;17.10;;;6.07;;
20181;SDS011;10250;50.756;6.172;2023-07-09T01:21:49;16.40;;;5.87;;
20181;SDS011;10250;50.756;6.172;2023-07-09T01:23:50;18.03;;;6.03;;
20181;SDS011;10250;50.756;6.172;2023-07-09T01:25:53;15.53;;;5.77;;
20181;SDS011;10250;50.756;6.172;2023-07-09T01:27:54;17.07;;;6.13;;
20181;SDS011;10250;50.756;6.172;2023-07-09T01:29:55;17.13;;;6.00;;
20181;SDS011;10250;50.756;6.172;2023-07-09T01:31:57;15.77;;;6.30;;
20181;SDS011;10250;50.756;6.172;2023-07-09T01:33:58;15.73;;;5.80;;
20181;SDS011;10250;50.756;6.172;2023-07-09T01:35:58;17.37;;;6.10;;
20181;SDS011;10250;50.756;6.172;2023-07-09T01:38:00;16.90;;;5.80;;
20181;SDS011;10250;50.756;6.172;2023-07-09T01:40:01;16.40;;;5.90;;
20181;SDS011;10250;50.756;6.172;2023-07-09T01:42:05;17.40;;;6.20;;
20181;SDS011;10250;50.756;6.172;2023-07-09T01:44:08;18.63;;;5.60;;
20181;SDS011;10250;50.756;6.172;2023-07-09T01:46:09;17.20;;;5.73;;
20181;SDS011;10250;50.756;6.172;2023-07-09T01:48:12;17.67;;;5.70;;
20181;SDS011;10250;50.756;6.172;2023-07-09T01:50:15;16.77;;;5.83;;
20181;SDS011;10250;50.756;6.172;2023-07-09T01:52:16;17.00;;;5.40;;
20181;SDS011;10250;50.756;6.172;2023-07-09T01:54:19;16.47;;;5.60;;
20181;SDS011;10250;50.756;6.172;2023-07-09T01:56:19;14.53;;;5.30;;
20181;SDS011;10250;50.756;6.172;2023-07-09T01:58:20;17.50;;;5.73;;
20181;SDS011;10250;50.756;6.172;2023-07-09T02:00:24;16.57;;;5.53;;
20181;SDS011;10250;50.756;6.172;2023-07-09T02:02:26;16.77;;;5.47;;
20181;SDS011;10250;50.756;6.172;2023-07-09T02:04:27;16.13;;;5.00;;
20181;SDS011;10250;50.756;6.172;2023-07-09T02:06:28;19.10;;;5.33;;
20181;SDS011;10250;50.756;6.172;2023-07-09T02:08:31;16.23;;;5.23;;
20181;SDS011;10250;50.756;6.172;2023-07-09T02:10:32;17.13;;;5.40;;
20181;SDS011;10250;50.756;6.172;2023-07-09T02:12:33;15.00;;;5.13;;
20181;SDS011;10250;50.756;6.172;2023-07-09T02:14:33;15.00;;;5.10;;
20181;SDS011;10250;50.756;6.172;2023-07-09T02:16:34;16.60;;;5.27;;
20181;SDS011;10250;50.756;6.172;2023-07-09T02:18:34;15.80;;;4.53;;
20181;SDS011;10250;50.756;6.172;2023-07-09T02:20:35;15.53;;;5.27;;
20181;SDS011;10250;50.756;6.172;2023-07-09T02:22:36;14.13;;;4.83;;
20181;SDS011;10250;50.756;6.172;2023-07-09T02:24:38;15.77;;;4.93;;
20181;SDS011;10250;50.756;6.172;2023-07-09T02:26:39;15.13;;;4.90;;
20181;SDS011;10250;50.756;6.172;2023-07-09T02:28:39;15.33;;;5.07;;
20181;SDS011;10250;50.756;6.172;2023-07-09T02:30:40;15.53;;;4.77;;
20181;SDS011;10250;50.756;6.172;2023-07-09T02:32:40;17.23;;;5.17;;
20181;SDS011;10250;50.756;6.172;2023-07-09T02:34:41;15.00;;;5.00;;
20181;SDS011;10250;50.756;6.172;2023-07-09T02:36:42;17.30;;;4.80;;
20181;SDS011;10250;50.756;6.172;2023-07-09T02:38:42;15.90;;;5.03;;
20181;SDS011;10250;50.756;6.172;2023-07-09T02:40:43;16.10;;;4.93;;
20181;SDS011;10250;50.756;6.172;2023-07-09T02:42:44;14.07;;;4.47;;
20181;SDS011;10250;50.756;6.172;2023-07-09T02:44:44;14.33;;;4.80;;
20181;SDS011;10250;50.756;6.172;2023-07-09T02:46:45;17.47;;;5.03;;
20181;SDS011;10250;50.756;6.172;2023-07-09T02:48:46;15.47;;;5.27;;
20181;SDS011;10250;50.756;6.172;2023-07-09T02:50:47;16.43;;;5.30;;
20181;SDS011;10250;50.756;6.172;2023-07-09T02:52:47;18.73;;;5.67;;
20181;SDS011;10250;50.756;6.172;2023-07-09T02:54:48;16.13;;;5.27;;
20181;SDS011;10250;50.756;6.172;2023-07-09T02:56:48;17.43;;;5.10;;
20181;SDS011;10250;50.756;6.172;2023-07-09T02:58:49;17.83;;;5.10;;
20181;SDS011;10250;50.756;6.172;2023-07-09T03:00:50;17.50;;;5.30;;
20181;SDS011;10250;50.756;6.172;2023-07-09T03:02:54;17.80;;;5.00;;
20181;SDS011;10250;50.756;6.172;2023-07-09T03:04:54;14.03;;;5.07;;
20181;SDS011;10250;50.756;6.172;2023-07-09T03:06:55;15.93;;;5.10;;
20181;SDS011;10250;50.756;6.172;2023-07-09T03:08:55;15.33;;;5.30;;
20181;SDS011;10250;50.756;6.172;2023-07-09T03:10:56;15.47;;;4.93;;
20181;SDS011;10250;50.756;6.172;2023-07-09T03:12:57;14.03;;;4.80;;
20181;SDS011;10250;50.756;6.172;2023-07-09T03:14:58;14.57;;;5.30;;
20181;SDS011;10250;50.756;6.172;2023-07-09T03:17:02;15.20;;;5.10;;
20181;SDS011;10250;50.756;6.172;2023-07-09T03:19:03;15.93;;;5.20;;
20181;SDS011;10250;50.756;6.172;2023-07-09T03:21:04;15.07;;;5.20;;
20181;SDS011;10250;50.756;6.172;2023-07-09T03:23:05;14.83;;;5.07;;
20181;SDS011;10250;50.756;6.172;2023-07-09T03:25:06;15.83;;;4.60;;
20181;SDS011;10250;50.756;6.172;2023-07-09T03:27:07;19.33;;;4.93;;
20181;SDS011;10250;50.756;6.172;2023-07-09T03:29:09;14.07;;;4.63;;
20181;SDS011;10250;50.756;6.172;2023-07-09T03:31:09;14.80;;;4.87;;
20181;SDS011;10250;50.756;6.172;2023-07-09T03:33:10;15.80;;;4.87;;
20181;SDS011;10250;50.756;6.172;2023-07-09T03:35:12;18.23;;;4.80;;
20181;SDS011;10250;50.756;6.172;2023-07-09T03:37:12;13.90;;;4.40;;
20181;SDS011;10250;50.756;6.172;2023-07-09T03:39:13;13.00;;;3.83;;
20181;SDS011;10250;50.756;6.172;2023-07-09T03:41:13;14.07;;;4.40;;
20181;SDS011;10250;50.756;6.172;2023-07-09T03:43:14;15.07;;;5.00;;
20181;SDS011;10250;50.756;6.172;2023-07-09T03:45:15;14.07;;;4.70;;
20181;SDS011;10250;50.756;6.172;2023-07-09T03:47:16;14.70;;;4.43;;
20181;SDS011;10250;50.756;6.172;2023-07-09T03:49:18;15.40;;;4.73;;
20181;SDS011;10250;50.756;6.172;2023-07-09T03:51:18;13.70;;;4.23;;
20181;SDS011;10250;50.756;6.172;2023-07-09T03:53:19;13.77;;;4.50;;
20181;SDS011;10250;50.756;6.172;2023-07-09T03:55:19;15.27;;;4.73;;
20181;SDS011;10250;50.756;6.172;2023-07-09T03:57:20;15.33;;;4.30;;
20181;SDS011;10250;50.756;6.172;2023-07-09T03:59:21;16.77;;;4.50;;
20181;SDS011;10250;50.756;6.172;2023-07-09T04:01:22;13.13;;;4.37;;
20181;SDS011;10250;50.756;6.172;2023-07-09T04:03:23;13.93;;;4.43;;
20181;SDS011;10250;50.756;6.172;2023-07-09T04:05:24;15.10;;;4.40;;
20181;SDS011;10250;50.756;6.172;2023-07-09T04:07:25;13.50;;;3.77;;
20181;SDS011;10250;50.756;6.172;2023-07-09T04:09:25;14.47;;;4.33;;
20181;SDS011;10250;50.756;6.172;2023-07-09T04:11:26;11.60;;;4.03;;
20181;SDS011;10250;50.756;6.172;2023-07-09T04:13:27;14.47;;;4.17;;
20181;SDS011;10250;50.756;6.172;2023-07-09T04:15:28;13.10;;;3.77;;
20181;SDS011;10250;50.756;6.172;2023-07-09T04:17:29;15.17;;;4.57;;
20181;SDS011;10250;50.756;6.172;2023-07-09T04:19:30;13.93;;;4.00;;
20181;SDS011;10250;50.756;6.172;2023-07-09T04:21:30;13.67;;;4.00;;
20181;SDS011;10250;50.756;6.172;2023-07-09T04:23:31;13.43;;;4.00;;
20181;SDS011;10250;50.756;6.172;2023-07-09T04:25:31;13.23;;;3.90;;
20181;SDS011;10250;50.756;6.172;2023-07-09T04:27:32;14.87;;;4.33;;
20181;SDS011;10250;50.756;6.172;2023-07-09T04:29:34;11.57;;;3.47;;
20181;SDS011;10250;50.756;6.172;2023-07-09T04:31:35;11.53;;;3.83;;
20181;SDS011;10250;50.756;6.172;2023-07-09T04:33:36;12.43;;;3.77;;
20181;SDS011;10250;50.756;6.172;2023-07-09T04:35:36;12.70;;;3.80;;
20181;SDS011;10250;50.756;6.172;2023-07-09T04:37:38;12.73;;;3.70;;
20181;SDS011;10250;50.756;6.172;2023-07-09T04:39:39;13.67;;;3.80;;
20181;SDS011;10250;50.756;6.172;2023-07-09T04:41:40;14.83;;;3.70;;
20181;SDS011;10250;50.756;6.172;2023-07-09T04:43:41;14.03;;;3.57;;
20181;SDS011;10250;50.756;6.172;2023-07-09T04:45:41;12.57;;;3.73;;
20181;SDS011;10250;50.756;6.172;2023-07-09T04:47:42;14.73;;;4.03;;
20181;SDS011;10250;50.756;6.172;2023-07-09T04:49:43;14.80;;;3.87;;
20181;SDS011;10250;50.756;6.172;2023-07-09T04:51:43;12.97;;;3.90;;
20181;SDS011;10250;50.756;6.172;2023-07-09T04:53:44;12.67;;;3.73;;
20181;SDS011;10250;50.756;6.172;2023-07-09T04:55:44;13.17;;;3.70;;
20181;SDS011;10250;50.756;6.172;2023-07-09T04:57:45;13.90;;;4.47;;
20181;SDS011;10250;50.756;6.172;2023-07-09T04:59:46;13.63;;;3.63;;
20181;SDS011;10250;50.756;6.172;2023-07-09T05:01:46;13.03;;;3.83;;
20181;SDS011;10250;50.756;6.172;2023-07-09T05:03:49;14.50;;;3.87;;
20181;SDS011;10250;50.756;6.172;2023-07-09T05:05:49;11.83;;;3.57;;
20181;SDS011;10250;50.756;6.172;2023-07-09T05:07:50;12.40;;;3.60;;
20181;SDS011;10250;50.756;6.172;2023-07-09T05:09:50;12.20;;;3.47;;
20181;SDS011;10250;50.756;6.172;2023-07-09T05:11:51;12.67;;;3.40;;
20181;SDS011;10250;50.756;6.172;2023-07-09T05:13:52;14.53;;;3.80;;
20181;SDS011;10250;50.756;6.172;2023-07-09T05:15:52;14.27;;;3.60;;
20181;SDS011;10250;50.756;6.172;2023-07-09T05:17:53;14.37;;;4.03;;
20181;SDS011;10250;50.756;6.172;2023-07-09T05:19:54;16.87;;;3.77;;
20181;SDS011;10250;50.756;6.172;2023-07-09T05:21:54;14.07;;;4.20;;
20181;SDS011;10250;50.756;6.172;2023-07-09T05:23:55;12.07;;;3.67;;
20181;SDS011;10250;50.756;6.172;2023-07-09T05:25:56;13.40;;;3.73;;
20181;SDS011;10250;50.756;6.172;2023-07-09T05:27:58;14.67;;;3.90;;
20181;SDS011;10250;50.756;6.172;2023-07-09T05:29:58;11.97;;;3.33;;
20181;SDS011;10250;50.756;6.172;2023-07-09T05:32:00;14.47;;;3.93;;
20181;SDS011;10250;50.756;6.172;2023-07-09T05:34:01;13.10;;;3.67;;
20181;SDS011;10250;50.756;6.172;2023-07-09T05:36:01;12.40;;;3.67;;
20181;SDS011;10250;50.756;6.172;2023-07-09T05:38:02;14.33;;;3.80;;
20181;SDS011;10250;50.756;6.172;2023-07-09T05:40:04;12.23;;;3.40;;
20181;SDS011;10250;50.756;6.172;2023-07-09T05:42:05;12.97;;;4.23;;
20181;SDS011;10250;50.756;6.172;2023-07-09T05:44:07;15.13;;;3.87;;
20181;SDS011;10250;50.756;6.172;2023-07-09T05:46:07;11.63;;;3.70;;
20181;SDS011;10250;50.756;6.172;2023-07-09T05:48:08;13.43;;;3.60;;
20181;SDS011;10250;50.756;6.172;2023-07-09T05:50:08;11.77;;;3.47;;
20181;SDS011;10250;50.756;6.172;2023-07-09T05:52:09;13.53;;;3.70;;
20181;SDS011;10250;50.756;6.172;2023-07-09T05:54:10;12.10;;;3.47;;
20181;SDS011;10250;50.756;6.172;2023-07-09T05:56:11;12.67;;;3.70;;
20181;SDS011;10250;50.756;6.172;2023-07-09T05:58:11;13.73;;;3.77;;
20181;SDS011;10250;50.756;6.172;2023-07-09T06:00:12;12.57;;;3.70;;
20181;SDS011;10250;50.756;6.172;2023-07-09T06:02:14;14.37;;;3.53;;
20181;SDS011;10250;50.756;6.172;2023-07-09T06:04:16;14.10;;;4.00;;
20181;SDS011;10250;50.756;6.172;2023-07-09T06:06:19;13.67;;;3.30;;
20181;SDS011;10250;50.756;6.172;2023-07-09T06:08:22;14.57;;;3.90;;
20181;SDS011;10250;50.756;6.172;2023-07-09T06:10:22;13.83;;;3.73;;
20181;SDS011;10250;50.756;6.172;2023-07-09T06:12:23;14.13;;;3.93;;
20181;SDS011;10250;50.756;6.172;2023-07-09T06:14:24;15.80;;;4.47;;
20181;SDS011;10250;50.756;6.172;2023-07-09T06:16:25;13.70;;;3.93;;
20181;SDS011;10250;50.756;6.172;2023-07-09T06:18:27;13.27;;;3.73;;
20181;SDS011;10250;50.756;6.172;2023-07-09T06:20:30;12.40;;;3.57;;
20181;SDS011;10250;50.756;6.172;2023-07-09T06:22:31;12.33;;;3.50;;
20181;SDS011;10250;50.756;6.172;2023-07-09T06:24:32;12.47;;;3.40;;
20181;SDS011;10250;50.756;6.172;2023-07-09T06:26:32;13.07;;;3.50;;
20181;SDS011;10250;50.756;6.172;2023-07-09T06:28:33;13.50;;;3.80;;
20181;SDS011;10250;50.756;6.172;2023-07-09T06:30:34;13.00;;;3.53;;
20181;SDS011;10250;50.756;6.172;2023-07-09T06:32:36;12.50;;;3.40;;
20181;SDS011;10250;50.756;6.172;2023-07-09T06:34:37;12.90;;;3.67;;
20181;SDS011;10250;50.756;6.172;2023-07-09T06:36:37;12.80;;;3.63;;
20181;SDS011;10250;50.756;6.172;2023-07-09T06:38:38;13.10;;;3.70;;
20181;SDS011;10250;50.756;6.172;2023-07-09T06:40:39;12.87;;;3.70;;
20181;SDS011;10250;50.756;6.172;2023-07-09T06:42:41;12.90;;;3.57;;
20181;SDS011;10250;50.756;6.172;2023-07-09T06:44:42;14.67;;;3.90;;
20181;SDS011;10250;50.756;6.172;2023-07-09T06:46:43;14.37;;;3.67;;
20181;SDS011;10250;50.756;6.172;2023-07-09T06:48:46;13.57;;;3.70;;
20181;SDS011;10250;50.756;6.172;2023-07-09T06:50:47;15.10;;;3.63;;
20181;SDS011;10250;50.756;6.172;2023-07-09T06:52:48;12.52;;;3.63;;
20181;SDS011;10250;50.756;6.172;2023-07-09T06:54:49;11.95;;;3.22;;
20181;SDS011;10250;50.756;6.172;2023-07-09T06:56:50;14.48;;;3.47;;
20181;SDS011;10250;50.756;6.172;2023-07-09T06:58:51;11.85;;;3.35;;
20181;SDS011;10250;50.756;6.172;2023-07-09T07:00:52;12.77;;;3.55;;
20181;SDS011;10250;50.756;6.172;2023-07-09T07:02:53;12.30;;;3.50;;
20181;SDS011;10250;50.756;6.172;2023-07-09T07:04:54;14.32;;;3.72;;
20181;SDS011;10250;50.756;6.172;2023-07-09T07:06:55;11.85;;;3.55;;
20181;SDS011;10250;50.756;6.172;2023-07-09T07:08:56;13.23;;;3.80;;
20181;SDS011;10250;50.756;6.172;2023-07-09T07:10:58;12.95;;;3.75;;
20181;SDS011;10250;50.756;6.172;2023-07-09T07:13:02;13.25;;;3.50;;
20181;SDS011;10250;50.756;6.172;2023-07-09T07:15:03;16.00;;;3.63;;
20181;SDS011;10250;50.756;6.172;2023-07-09T07:17:04;12.93;;;3.80;;
20181;SDS011;10250;50.756;6.172;2023-07-09T07:21:07;12.25;;;3.55;;
20181;SDS011;10250;50.756;6.172;2023-07-09T07:23:08;11.95;;;3.30;;
20181;SDS011;10250;50.756;6.172;2023-07-09T07:25:09;14.77;;;3.08;;
20181;SDS011;10250;50.756;6.172;2023-07-09T07:27:10;11.43;;;3.75;;
20181;SDS011;10250;50.756;6.172;2023-07-09T07:29:11;15.30;;;3.63;;
20181;SDS011;10250;50.756;6.172;2023-07-09T07:31:12;12.85;;;3.22;;
20181;SDS011;10250;50.756;6.172;2023-07-09T07:33:13;12.10;;;3.38;;
20181;SDS011;10250;50.756;6.172;2023-07-09T07:35:17;14.93;;;3.40;;
20181;SDS011;10250;50.756;6.172;2023-07-09T07:37:19;11.65;;;3.22;;
20181;SDS011;10250;50.756;6.172;2023-07-09T07:39:20;12.90;;;3.80;;
20181;SDS011;10250;50.756;6.172;2023-07-09T07:41:21;12.10;;;3.58;;
20181;SDS011;10250;50.756;6.172;2023-07-09T07:43:22;13.57;;;3.60;;
20181;SDS011;10250;50.756;6.172;2023-07-09T07:45:23;15.02;;;3.50;;
20181;SDS011;10250;50.756;6.172;2023-07-09T07:47:24;11.88;;;3.60;;
20181;SDS011;10250;50.756;6.172;2023-07-09T07:49:27;11.63;;;3.38;;
20181;SDS011;10250;50.756;6.172;2023-07-09T07:51:28;13.70;;;3.25;;
20181;SDS011;10250;50.756;6.172;2023-07-09T07:53:29;12.90;;;3.38;;
20181;SDS011;10250;50.756;6.172;2023-07-09T07:55:30;9.73;;;2.90;;
20181;SDS011;10250;50.756;6.172;2023-07-09T07:57:31;13.30;;;3.30;;
20181;SDS011;10250;50.756;6.172;2023-07-09T07:59:32;15.82;;;3.90;;
20181;SDS011;10250;50.756;6.172;2023-07-09T08:01:34;11.88;;;3.70;;
20181;SDS011;10250;50.756;6.172;2023-07-09T08:03:35;12.25;;;3.20;;
20181;SDS011;10250;50.756;6.172;2023-07-09T08:05:36;14.30;;;3.28;;
20181;SDS011;10250;50.756;6.172;2023-07-09T08:07:37;11.40;;;3.08;;
20181;SDS011;10250;50.756;6.172;2023-07-09T08:09:38;12.52;;;3.25;;
20181;SDS011;10250;50.756;6.172;2023-07-09T08:11:39;11.30;;;3.25;;
20181;SDS011;10250;50.756;6.172;2023-07-09T08:13:40;11.77;;;3.13;;
20181;SDS011;10250;50.756;6.172;2023-07-09T08:15:41;13.73;;;3.35;;
20181;SDS011;10250;50.756;6.172;2023-07-09T08:17:42;12.05;;;3.60;;
20181;SDS011;10250;50.756;6.172;2023-07-09T08:19:47;12.40;;;3.22;;
20181;SDS011;10250;50.756;6.172;2023-07-09T08:21:48;11.30;;;3.50;;
20181;SDS011;10250;50.756;6.172;2023-07-09T08:23:49;10.52;;;2.90;;
20181;SDS011;10250;50.756;6.172;2023-07-09T08:25:53;13.07;;;3.28;;
20181;SDS011;10250;50.756;6.172;2023-07-09T08:27:55;11.18;;;3.53;;
20181;SDS011;10250;50.756;6.172;2023-07-09T08:29:55;10.43;;;3.17;;
20181;SDS011;10250;50.756;6.172;2023-07-09T08:31:56;13.40;;;3.35;;
20181;SDS011;10250;50.756;6.172;2023-07-09T08:33:57;8.98;;;2.70;;
20181;SDS011;10250;50.756;6.172;2023-07-09T08:35:58;12.50;;;3.50;;
20181;SDS011;10250;50.756;6.172;2023-07-09T08:37:59;11.00;;;3.30;;
20181;SDS011;10250;50.756;6.172;2023-07-09T08:40:00;11.90;;;3.30;;
20181;SDS011;10250;50.756;6.172;2023-07-09T08:42:02;12.55;;;3.55;;
20181;SDS011;10250;50.756;6.172;2023-07-09T08:48:14;13.93;;;4.00;;
20181;SDS011;10250;50.756;6.172;2023-07-09T08:50:21;19.20;;;3.42;;
20181;SDS011;10250;50.756;6.172;2023-07-09T08:52:28;14.48;;;3.58;;
20181;SDS011;10250;50.756;6.172;2023-07-09T08:54:32;11.13;;;3.53;;
20181;SDS011;10250;50.756;6.172;2023-07-09T08:56:34;10.18;;;3.17;;
20181;SDS011;10250;50.756;6.172;2023-07-09T08:58:35;12.73;;;3.13;;
20181;SDS011;10250;50.756;6.172;2023-07-09T09:00:41;9.93;;;3.20;;
20181;SDS011;10250;50.756;6.172;2023-07-09T09:04:48;10.82;;;3.30;;
20181;SDS011;10250;50.756;6.172;2023-07-09T09:06:57;11.43;;;3.30;;
20181;SDS011;10250;50.756;6.172;2023-07-09T09:13:10;12.30;;;3.40;;
20181;SDS011;10250;50.756;6.172;2023-07-09T09:15:16;12.57;;;3.50;;
20181;SDS011;10250;50.756;6.172;2023-07-09T09:17:18;12.32;;;3.45;;
20181;SDS011;10250;50.756;6.172;2023-07-09T09:19:27;12.23;;;3.15;;
20181;SDS011;10250;50.756;6.172;2023-07-09T09:21:34;11.80;;;3.20;;
20181;SDS011;10250;50.756;6.172;2023-07-09T09:23:39;13.63;;;3.20;;
20181;SDS011;10250;50.756;6.172;2023-07-09T09:25:41;9.93;;;3.25;;
20181;SDS011;10250;50.756;6.172;2023-07-09T09:27:43;13.45;;;3.55;;
20181;SDS011;10250;50.756;6.172;2023-07-09T09:29:44;11.55;;;3.15;;
20181;SDS011;10250;50.756;6.172;2023-07-09T09:31:46;10.63;;;3.50;;
20181;SDS011;10250;50.756;6.172;2023-07-09T09:33:49;11.77;;;3.20;;
20181;SDS011;10250;50.756;6.172;2023-07-09T09:36:00;11.60;;;3.13;;
20181;SDS011;10250;50.756;6.172;2023-07-09T09:38:09;10.55;;;2.70;;
20181;SDS011;10250;50.756;6.172;2023-07-09T09:40:10;11.95;;;3.08;;
20181;SDS011;10250;50.756;6.172;2023-07-09T09:42:11;11.07;;;2.95;;
20181;SDS011;10250;50.756;6.172;2023-07-09T09:44:19;12.00;;;3.13;;
20181;SDS011;10250;50.756;6.172;2023-07-09T09:46:22;12.07;;;3.38;;
20181;SDS011;10250;50.756;6.172;2023-07-09T09:48:27;10.35;;;3.03;;
20181;SDS011;10250;50.756;6.172;2023-07-09T09:50:30;10.85;;;3.22;;
20181;SDS011;10250;50.756;6.172;2023-07-09T09:52:31;11.05;;;3.13;;
20181;SDS011;10250;50.756;6.172;2023-07-09T09:54:34;12.23;;;3.28;;
20181;SDS011;10250;50.756;6.172;2023-07-09T09:56:35;9.75;;;2.78;;
20181;SDS011;10250;50.756;6.172;2023-07-09T09:58:39;11.98;;;2.90;;
20181;SDS011;10250;50.756;6.172;2023-07-09T10:00:40;14.50;;;3.28;;
20181;SDS011;10250;50.756;6.172;2023-07-09T10:02:48;12.05;;;3.25;;
20181;SDS011;10250;50.756;6.172;2023-07-09T10:04:49;12.48;;;3.22;;
20181;SDS011;10250;50.756;6.172;2023-07-09T10:06:51;10.23;;;3.30;;
20181;SDS011;10250;50.756;6.172;2023-07-09T10:09:18;14.05;;;3.45;;
20181;SDS011;10250;50.756;6.172;2023-07-09T10:12:05;11.70;;;3.42;;
20181;SDS011;10250;50.756;6.172;2023-07-09T10:13:46;11.95;;;3.20;;
20181;SDS011;10250;50.756;6.172;2023-07-09T10:16:17;11.52;;;3.42;;
20181;SDS011;10250;50.756;6.172;2023-07-09T10:18:29;11.90;;;3.45;;
20181;SDS011;10250;50.756;6.172;2023-07-09T10:22:39;12.52;;;3.28;;
20181;SDS011;10250;50.756;6.172;2023-07-09T10:26:48;11.90;;;3.30;;
20181;SDS011;10250;50.756;6.172;2023-07-09T10:31:24;10.93;;;2.95;;
20181;SDS011;10250;50.756;6.172;2023-07-09T10:33:30;12.73;;;3.15;;
20181;SDS011;10250;50.756;6.172;2023-07-09T10:39:56;11.73;;;2.95;;
20181;SDS011;10250;50.756;6.172;2023-07-09T10:41:59;11.43;;;3.08;;
20181;SDS011;10250;50.756;6.172;2023-07-09T10:44:02;12.00;;;3.00;;
20181;SDS011;10250;50.756;6.172;2023-07-09T10:46:09;11.88;;;3.30;;
20181;SDS011;10250;50.756;6.172;2023-07-09T10:48:13;11.35;;;3.67;;
20181;SDS011;10250;50.756;6.172;2023-07-09T10:50:28;12.35;;;3.67;;
20181;SDS011;10250;50.756;6.172;2023-07-09T10:52:32;10.82;;;3.42;;
20181;SDS011;10250;50.756;6.172;2023-07-09T10:54:37;12.43;;;3.25;;
20181;SDS011;10250;50.756;6.172;2023-07-09T10:56:39;11.77;;;3.28;;
20181;SDS011;10250;50.756;6.172;2023-07-09T10:58:43;12.02;;;3.15;;
20181;SDS011;10250;50.756;6.172;2023-07-09T11:00:47;11.55;;;3.10;;
20181;SDS011;10250;50.756;6.172;2023-07-09T11:02:50;10.23;;;3.13;;
20181;SDS011;10250;50.756;6.172;2023-07-09T11:04:54;12.45;;;3.40;;
20181;SDS011;10250;50.756;6.172;2023-07-09T11:06:56;11.32;;;3.30;;
20181;SDS011;10250;50.756;6.172;2023-07-09T11:08:58;11.23;;;3.50;;
20181;SDS011;10250;50.756;6.172;2023-07-09T11:11:01;11.27;;;3.85;;
20181;SDS011;10250;50.756;6.172;2023-07-09T11:13:21;11.95;;;3.30;;
20181;SDS011;10250;50.756;6.172;2023-07-09T11:15:26;12.90;;;3.50;;
20181;SDS011;10250;50.756;6.172;2023-07-09T11:17:28;14.68;;;3.67;;
20181;SDS011;10250;50.756;6.172;2023-07-09T11:19:29;13.45;;;3.53;;
20181;SDS011;10250;50.756;6.172;2023-07-09T11:21:30;11.55;;;3.25;;
20181;SDS011;10250;50.756;6.172;2023-07-09T11:24:04;13.85;;;3.17;;
20181;SDS011;10250;50.756;6.172;2023-07-09T11:28:13;14.88;;;3.60;;
20181;SDS011;10250;50.756;6.172;2023-07-09T11:32:22;10.43;;;3.47;;
20181;SDS011;10250;50.756;6.172;2023-07-09T11:34:26;10.68;;;3.40;;
20181;SDS011;10250;50.756;6.172;2023-07-09T11:36:29;13.45;;;3.38;;
20181;SDS011;10250;50.756;6.172;2023-07-09T11:38:36;12.07;;;3.22;;
20181;SDS011;10250;50.756;6.172;2023-07-09T11:40:45;10.15;;;3.42;;
20181;SDS011;10250;50.756;6.172;2023-07-09T11:42:47;12.80;;;3.35;;
20181;SDS011;10250;50.756;6.172;2023-07-09T11:44:49;13.93;;;3.83;;
20181;SDS011;10250;50.756;6.172;2023-07-09T11:49:12;12.25;;;3.35;;
20181;SDS011;10250;50.756;6.172;2023-07-09T11:51:15;12.00;;;3.33;;
20181;SDS011;10250;50.756;6.172;2023-07-09T11:53:30;12.23;;;3.33;;
20181;SDS011;10250;50.756;6.172;2023-07-09T11:55:42;10.88;;;3.10;;
20181;SDS011;10250;50.756;6.172;2023-07-09T11:57:46;14.35;;;3.45;;
20181;SDS011;10250;50.756;6.172;2023-07-09T11:59:48;12.50;;;3.33;;
20181;SDS011;10250;50.756;6.172;2023-07-09T12:01:49;10.35;;;3.40;;
20181;SDS011;10250;50.756;6.172;2023-07-09T12:03:53;9.75;;;3.08;;
20181;SDS011;10250;50.756;6.172;2023-07-09T12:06:04;13.55;;;3.30;;
20181;SDS011;10250;50.756;6.172;2023-07-09T12:08:06;13.68;;;3.20;;
20181;SDS011;10250;50.756;6.172;2023-07-09T12:10:15;11.60;;;3.70;;
20181;SDS011;10250;50.756;6.172;2023-07-09T12:14:20;11.27;;;3.35;;
20181;SDS011;10250;50.756;6.172;2023-07-09T12:18:23;11.32;;;3.60;;
20181;SDS011;10250;50.756;6.172;2023-07-09T12:20:25;11.85;;;3.30;;
20181;SDS011;10250;50.756;6.172;2023-07-09T12:22:26;11.25;;;3.38;;
20181;SDS011;10250;50.756;6.172;2023-07-09T12:24:28;11.93;;;3.08;;
20181;SDS011;10250;50.756;6.172;2023-07-09T12:26:30;11.80;;;3.30;;
20181;SDS011;10250;50.756;6.172;2023-07-09T12:28:32;11.82;;;3.65;;
20181;SDS011;10250;50.756;6.172;2023-07-09T12:30:33;11.90;;;3.30;;
20181;SDS011;10250;50.756;6.172;2023-07-09T12:32:42;11.70;;;3.38;;
20181;SDS011;10250;50.756;6.172;2023-07-09T12:34:52;11.75;;;3.53;;
20181;SDS011;10250;50.756;6.172;2023-07-09T12:36:54;13.27;;;3.13;;
20181;SDS011;10250;50.756;6.172;2023-07-09T12:38:59;12.00;;;3.63;;
20181;SDS011;10250;50.756;6.172;2023-07-09T12:41:01;12.70;;;3.47;;
20181;SDS011;10250;50.756;6.172;2023-07-09T12:43:03;11.32;;;3.50;;
20181;SDS011;10250;50.756;6.172;2023-07-09T12:45:05;13.25;;;3.85;;
20181;SDS011;10250;50.756;6.172;2023-07-09T12:47:07;12.63;;;3.45;;